createdAt,value
2023-11-01T00:00:28.522Z,10.00
2023-11-01T00:02:55.696Z,10.00
2023-11-01T00:05:22.984Z,10.00
2023-11-01T00:07:50.085Z,9.90
2023-11-01T00:10:17.310Z,9.80
2023-11-01T00:12:44.399Z,9.80
2023-11-01T00:15:11.886Z,9.80
2023-11-01T00:17:39.251Z,9.80
2023-11-01T00:20:07.778Z,9.70
2023-11-01T00:22:35.025Z,9.70
2023-11-01T00:25:02.127Z,9.70
2023-11-01T00:27:32.349Z,9.60
2023-11-01T00:30:01.594Z,9.70
2023-11-01T00:32:28.800Z,9.70
2023-11-01T00:34:56.067Z,9.70
2023-11-01T00:37:23.313Z,9.60
2023-11-01T00:39:50.490Z,9.60
2023-11-01T00:42:19.441Z,9.60
2023-11-01T00:44:47.378Z,9.60
2023-11-01T00:47:14.597Z,9.60
2023-11-01T00:49:41.738Z,9.60
2023-11-01T00:52:09.069Z,9.50
2023-11-01T00:54:36.188Z,9.50
2023-11-01T00:57:03.466Z,9.50
2023-11-01T00:59:30.666Z,9.50
2023-11-01T01:01:57.952Z,9.50
2023-11-01T01:04:25.071Z,9.60
2023-11-01T01:06:52.204Z,9.60
2023-11-01T01:09:19.432Z,9.60
2023-11-01T01:11:46.709Z,9.70
2023-11-01T01:14:13.924Z,9.70
2023-11-01T01:16:41.973Z,9.70
2023-11-01T01:19:09.169Z,9.70
2023-11-01T01:21:37.124Z,9.70
2023-11-01T01:24:04.666Z,9.70
2023-11-01T01:26:32.698Z,9.70
2023-11-01T01:28:59.905Z,9.80
2023-11-01T01:31:27.091Z,9.80
2023-11-01T01:33:54.268Z,9.90
2023-11-01T01:36:21.427Z,10.00
2023-11-01T01:38:48.534Z,10.10
2023-11-01T01:41:15.694Z,10.10
2023-11-01T01:43:43.166Z,10.20
2023-11-01T01:46:17.634Z,10.30
2023-11-01T01:48:46.334Z,10.40
2023-11-01T01:51:15.056Z,10.50
2023-11-01T01:53:46.204Z,10.50
2023-11-01T01:56:14.688Z,10.60
2023-11-01T01:58:43.565Z,10.70
2023-11-01T02:01:11.473Z,10.70
2023-11-01T02:03:39.004Z,10.80
2023-11-01T02:06:07.668Z,10.90
2023-11-01T02:08:35.151Z,10.90
2023-11-01T02:11:02.285Z,11.00
2023-11-01T02:13:29.793Z,11.00
2023-11-01T02:15:57.273Z,11.10
2023-11-01T02:18:24.486Z,11.10
2023-11-01T02:20:53.603Z,11.20
2023-11-01T02:23:34.570Z,11.20
2023-11-01T02:26:03.207Z,11.30
2023-11-01T02:28:30.433Z,11.30
2023-11-01T02:30:58.295Z,11.30
2023-11-01T02:33:25.686Z,11.40
2023-11-01T02:35:53.122Z,11.40
2023-11-01T02:38:20.403Z,11.40
2023-11-01T02:40:47.588Z,11.50
2023-11-01T02:43:15.929Z,11.50
2023-11-01T02:45:43.079Z,11.50
2023-11-01T02:48:10.422Z,11.60
2023-11-01T02:50:37.596Z,11.60
2023-11-01T02:53:04.824Z,11.60
2023-11-01T02:55:31.968Z,11.60
2023-11-01T02:57:59.168Z,11.70
2023-11-01T03:00:26.342Z,11.70
2023-11-01T03:02:58.091Z,11.70
2023-11-01T03:05:29.767Z,11.70
2023-11-01T03:07:57.918Z,11.80
2023-11-01T03:10:25.297Z,11.80
2023-11-01T03:12:52.458Z,11.80
2023-11-01T03:15:19.654Z,11.80
2023-11-01T03:17:49.074Z,11.80
2023-11-01T03:20:16.625Z,11.80
2023-11-01T03:22:43.824Z,11.90
2023-11-01T03:25:11.085Z,11.90
2023-11-01T03:27:38.186Z,11.90
2023-11-01T03:30:05.776Z,11.90
2023-11-01T03:32:32.930Z,11.90
2023-11-01T03:35:00.242Z,11.90
2023-11-01T03:37:27.379Z,11.90
2023-11-01T03:39:54.524Z,11.90
2023-11-01T03:42:22.495Z,11.90
2023-11-01T03:44:52.358Z,11.90
2023-11-01T03:47:19.719Z,11.90
2023-11-01T03:49:46.908Z,11.90
2023-11-01T03:52:14.077Z,11.90
2023-11-01T03:54:41.344Z,11.90
2023-11-01T03:57:08.516Z,11.90
2023-11-01T03:59:35.696Z,11.90
2023-11-01T04:02:03.843Z,11.90
2023-11-01T04:04:31.027Z,11.90
2023-11-01T04:06:58.344Z,11.80
2023-11-01T04:09:25.522Z,11.80
2023-11-01T04:11:52.936Z,11.70
2023-11-01T04:14:20.902Z,11.70
2023-11-01T04:16:48.196Z,11.70
2023-11-01T04:19:16.273Z,11.60
2023-11-01T04:21:43.534Z,11.60
2023-11-01T04:24:11.512Z,11.60
2023-11-01T04:26:38.954Z,11.60
2023-11-01T04:29:06.601Z,11.60
2023-11-01T04:31:34.309Z,11.60
2023-11-01T04:34:01.515Z,11.60
2023-11-01T04:36:29.824Z,11.70
2023-11-01T04:38:58.518Z,11.70
2023-11-01T04:41:29.305Z,11.80
2023-11-01T04:43:57.185Z,11.80
2023-11-01T04:46:24.831Z,11.80
2023-11-01T04:48:52.338Z,11.90
2023-11-01T04:51:19.514Z,11.90
2023-11-01T04:53:47.836Z,11.90
2023-11-01T04:56:15.074Z,11.90
2023-11-01T04:58:42.247Z,11.90
2023-11-01T05:01:09.733Z,11.90
2023-11-01T05:03:38.326Z,12.00
2023-11-01T05:06:07.036Z,12.00
2023-11-01T05:08:36.394Z,12.00
2023-11-01T05:11:04.194Z,12.00
2023-11-01T05:13:31.282Z,12.00
2023-11-01T05:15:58.456Z,12.00
2023-11-01T05:18:25.997Z,12.00
2023-11-01T05:20:53.734Z,12.00
2023-11-01T05:23:21.236Z,12.00
2023-11-01T05:25:50.570Z,12.10
2023-11-01T05:28:18.186Z,12.00
2023-11-01T05:30:48.112Z,12.00
2023-11-01T05:33:16.569Z,12.10
2023-11-01T05:35:44.177Z,12.10
2023-11-01T05:38:11.521Z,12.10
2023-11-01T05:40:38.728Z,12.10
2023-11-01T05:43:08.845Z,12.10
2023-11-01T05:45:36.011Z,12.00
2023-11-01T05:48:10.092Z,12.00
2023-11-01T05:50:38.123Z,12.00
2023-11-01T05:53:10.941Z,12.00
2023-11-01T05:55:54.667Z,12.00
2023-11-01T05:58:30.451Z,12.00
2023-11-01T06:00:57.748Z,12.00
2023-11-01T06:03:28.185Z,11.90
2023-11-01T06:05:59.785Z,11.80
2023-11-01T06:08:27.707Z,11.70
2023-11-01T06:10:57.566Z,11.70
2023-11-01T06:13:24.824Z,11.60
2023-11-01T06:15:53.240Z,11.60
2023-11-01T06:18:22.477Z,11.60
2023-11-01T06:20:49.681Z,11.50
2023-11-01T06:23:17.002Z,11.50
2023-11-01T06:25:44.267Z,11.60
2023-11-01T06:28:11.641Z,11.60
2023-11-01T06:30:38.743Z,11.60
2023-11-01T06:33:06.039Z,11.60
2023-11-01T06:35:33.353Z,11.70
2023-11-01T06:38:00.567Z,11.70
2023-11-01T06:40:27.734Z,11.80
2023-11-01T06:42:55.004Z,11.80
2023-11-01T06:45:23.191Z,11.90
2023-11-01T06:47:50.422Z,11.90
2023-11-01T06:50:17.685Z,12.00
2023-11-01T06:52:46.940Z,12.10
2023-11-01T06:55:14.799Z,12.10
2023-11-01T06:57:42.020Z,12.20
2023-11-01T07:00:10.286Z,12.20
2023-11-01T07:02:37.721Z,12.30
2023-11-01T07:05:08.254Z,12.30
2023-11-01T07:07:35.424Z,12.20
2023-11-01T07:10:02.702Z,12.20
2023-11-01T07:12:29.823Z,12.20
2023-11-01T07:14:56.992Z,12.20
2023-11-01T07:17:28.116Z,12.30
2023-11-01T07:19:58.725Z,12.40
2023-11-01T07:22:26.563Z,12.50
2023-11-01T07:24:53.685Z,12.50
2023-11-01T07:27:20.947Z,12.60
2023-11-01T07:29:48.086Z,12.70
2023-11-01T07:32:15.225Z,12.80
2023-11-01T07:34:42.384Z,12.80
2023-11-01T07:37:10.310Z,12.90
2023-11-01T07:39:37.410Z,12.90
2023-11-01T07:42:06.369Z,12.90
2023-11-01T07:44:33.658Z,12.90
2023-11-01T07:47:00.765Z,12.80
2023-11-01T07:49:28.005Z,12.70
2023-11-01T07:51:55.107Z,12.70
2023-11-01T07:54:22.153Z,12.80
2023-11-01T07:56:49.292Z,12.90
2023-11-01T07:59:16.479Z,13.10
2023-11-01T08:01:44.235Z,13.20
2023-11-01T08:04:11.561Z,13.30
2023-11-01T08:06:38.889Z,13.30
2023-11-01T08:09:06.990Z,13.30
2023-11-01T08:11:34.153Z,13.30
2023-11-01T08:14:01.229Z,13.30
2023-11-01T08:16:28.650Z,13.30
2023-11-01T08:18:55.989Z,13.30
2023-11-01T08:21:23.082Z,13.40
2023-11-01T08:23:50.247Z,13.40
2023-11-01T08:26:20.512Z,13.50
2023-11-01T08:28:48.205Z,13.50
2023-11-01T08:31:16.428Z,13.50
2023-11-01T08:33:43.765Z,13.50
2023-11-01T08:36:11.485Z,13.50
2023-11-01T08:38:38.828Z,13.50
2023-11-01T08:41:06.069Z,13.50
2023-11-01T08:43:33.874Z,13.50
2023-11-01T08:46:01.703Z,13.50
2023-11-01T08:48:29.008Z,13.60
2023-11-01T08:50:56.279Z,13.80
2023-11-01T08:53:26.001Z,13.80
2023-11-01T08:55:54.644Z,13.90
2023-11-01T08:58:21.722Z,14.00
2023-11-01T09:00:48.908Z,14.10
2023-11-01T09:03:16.275Z,14.20
2023-11-01T09:05:43.766Z,14.20
2023-11-01T09:08:11.142Z,14.30
2023-11-01T09:10:38.260Z,14.40
2023-11-01T09:13:05.584Z,14.40
2023-11-01T09:15:32.806Z,14.40
2023-11-01T09:17:59.983Z,14.50
2023-11-01T09:20:27.200Z,14.50
2023-11-01T09:22:54.473Z,14.60
2023-11-01T09:25:22.206Z,14.70
2023-11-01T09:27:49.400Z,14.80
2023-11-01T09:30:16.567Z,14.90
2023-11-01T09:32:43.961Z,15.00
2023-11-01T09:35:13.683Z,15.00
2023-11-01T09:37:40.926Z,15.10
2023-11-01T09:40:12.709Z,15.10
2023-11-01T09:42:42.061Z,15.20
2023-11-01T09:45:12.019Z,15.30
2023-11-01T09:47:40.178Z,15.40
2023-11-01T09:50:09.974Z,15.50
2023-11-01T09:52:37.694Z,15.60
2023-11-01T09:55:06.050Z,15.60
2023-11-01T09:57:38.467Z,15.70
2023-11-01T10:00:08.985Z,15.80
2023-11-01T10:02:36.567Z,15.90
2023-11-01T10:05:04.013Z,16.00
2023-11-01T10:07:31.622Z,16.10
2023-11-01T10:09:58.734Z,16.20
2023-11-01T10:12:27.306Z,16.30
2023-11-01T10:14:54.451Z,16.40
2023-11-01T10:17:21.723Z,16.50
2023-11-01T10:19:49.466Z,16.60
2023-11-01T10:22:16.623Z,16.70
2023-11-01T10:24:44.402Z,16.80
2023-11-01T10:27:12.038Z,16.90
2023-11-01T10:29:48.788Z,17.00
2023-11-01T10:32:16.480Z,17.10
2023-11-01T10:34:44.119Z,17.10
2023-11-01T10:37:11.445Z,17.30
2023-11-01T10:39:41.604Z,17.40
2023-11-01T10:42:11.188Z,17.50
2023-11-01T10:44:40.104Z,17.60
2023-11-01T10:47:09.792Z,17.70
2023-11-01T10:49:38.338Z,17.70
2023-11-01T10:52:06.570Z,17.80
2023-11-01T10:54:34.945Z,18.00
2023-11-01T10:57:03.275Z,18.00
2023-11-01T10:59:40.318Z,18.10
2023-11-01T11:02:36.130Z,18.10
2023-11-01T11:05:07.030Z,18.20
2023-11-01T11:07:54.314Z,18.20
2023-11-01T11:10:28.360Z,18.30
2023-11-01T11:13:18.098Z,18.30
2023-11-01T11:15:48.839Z,18.40
2023-11-01T11:18:20.120Z,18.40
2023-11-01T11:20:47.638Z,18.50
2023-11-01T11:23:18.752Z,18.50
2023-11-01T11:25:51.068Z,18.50
2023-11-01T11:28:26.288Z,18.60
2023-11-01T11:31:13.863Z,18.60
2023-11-01T11:33:47.490Z,18.70
2023-11-01T11:36:19.161Z,18.70
2023-11-01T11:39:05.375Z,18.90
2023-11-01T11:41:38.713Z,18.90
2023-11-01T11:44:17.212Z,19.00
2023-11-01T11:46:48.416Z,19.00
2023-11-01T11:49:25.975Z,19.10
2023-11-01T11:52:00.646Z,19.10
2023-11-01T11:54:31.006Z,19.10
2023-11-01T11:57:02.582Z,19.00
2023-11-01T11:59:30.111Z,19.00
2023-11-01T12:02:06.232Z,19.10
2023-11-01T12:04:37.819Z,19.10
2023-11-01T12:07:08.044Z,19.20
2023-11-01T12:09:35.347Z,19.10
2023-11-01T12:12:15.764Z,19.10
2023-11-01T12:14:44.622Z,19.00
2023-11-01T12:17:12.570Z,19.00
2023-11-01T12:19:47.566Z,18.90
2023-11-01T12:22:15.985Z,19.00
2023-11-01T12:24:46.288Z,19.00
2023-11-01T12:27:21.563Z,19.10
2023-11-01T12:29:51.130Z,19.20
2023-11-01T12:32:25.175Z,19.20
2023-11-01T12:34:52.485Z,19.20
2023-11-01T12:37:24.606Z,19.20
2023-11-01T12:40:02.182Z,19.10
2023-11-01T12:42:30.770Z,19.20
2023-11-01T12:44:59.100Z,19.30
2023-11-01T12:47:33.005Z,19.30
2023-11-01T12:50:00.817Z,19.30
2023-11-01T12:52:27.963Z,19.20
2023-11-01T12:54:55.132Z,19.20
2023-11-01T12:57:23.225Z,19.10
2023-11-01T12:59:50.459Z,19.10
2023-11-01T13:02:19.209Z,19.10
2023-11-01T13:04:46.322Z,19.10
2023-11-01T13:07:14.171Z,19.10
2023-11-01T13:09:43.054Z,19.10
2023-11-01T13:12:10.405Z,19.10
2023-11-01T13:14:38.095Z,19.10
2023-11-01T13:17:05.276Z,19.10
2023-11-01T13:19:32.504Z,19.10
2023-11-01T13:21:59.614Z,19.00
2023-11-01T13:24:26.685Z,19.00
2023-11-01T13:26:53.856Z,18.90
2023-11-01T13:29:21.093Z,18.90
2023-11-01T13:31:53.257Z,18.90
2023-11-01T13:34:23.326Z,18.80
2023-11-01T13:36:52.244Z,18.80
2023-11-01T13:39:20.840Z,18.70
2023-11-01T13:41:48.202Z,18.70
2023-11-01T13:44:15.343Z,18.60
2023-11-01T13:46:43.099Z,18.60
2023-11-01T13:49:10.225Z,18.50
2023-11-01T13:51:37.944Z,18.50
2023-11-01T13:54:05.783Z,18.50
2023-11-01T13:56:32.948Z,18.50
2023-11-01T13:59:02.412Z,18.40
2023-11-01T14:01:30.505Z,18.40
2023-11-01T14:04:00.438Z,18.30
2023-11-01T14:06:28.174Z,18.30
2023-11-01T14:08:55.707Z,18.20
2023-11-01T14:11:25.802Z,18.20
2023-11-01T14:13:56.500Z,18.10
2023-11-01T14:16:23.669Z,18.10
2023-11-01T14:18:51.003Z,18.00
2023-11-01T14:21:18.534Z,17.90
2023-11-01T14:23:45.921Z,17.80
2023-11-01T14:26:13.479Z,17.70
2023-11-01T14:28:42.227Z,17.70
2023-11-01T14:31:09.767Z,17.60
2023-11-01T14:33:37.373Z,17.50
2023-11-01T14:36:08.860Z,17.50
2023-11-01T14:38:36.464Z,17.30
2023-11-01T14:41:03.845Z,17.30
2023-11-01T14:43:31.005Z,17.20
2023-11-01T14:45:58.279Z,17.20
2023-11-01T14:48:25.582Z,17.10
2023-11-01T14:50:52.920Z,17.00
2023-11-01T14:53:20.079Z,16.90
2023-11-01T14:55:47.267Z,16.90
2023-11-01T14:58:14.463Z,16.80
2023-11-01T15:00:43.823Z,16.80
2023-11-01T15:03:10.985Z,16.70
2023-11-01T15:05:38.402Z,16.60
2023-11-01T15:08:05.719Z,16.50
2023-11-01T15:10:33.148Z,16.40
2023-11-01T15:13:00.277Z,16.40
2023-11-01T15:15:27.342Z,16.30
2023-11-01T15:17:54.547Z,16.10
2023-11-01T15:20:21.723Z,16.00
2023-11-01T15:22:49.444Z,16.00
2023-11-01T15:25:17.395Z,15.80
2023-11-01T15:27:45.568Z,15.80
2023-11-01T15:30:15.904Z,15.70
2023-11-01T15:32:43.168Z,15.60
2023-11-01T15:35:10.404Z,15.60
2023-11-01T15:37:37.796Z,15.50
2023-11-01T15:40:07.643Z,15.40
2023-11-01T15:42:34.953Z,15.40
2023-11-01T15:45:02.151Z,15.30
2023-11-01T15:47:29.526Z,15.30
2023-11-01T15:49:56.905Z,15.20
2023-11-01T15:52:24.048Z,15.20
2023-11-01T15:54:52.633Z,15.10
2023-11-01T15:57:22.449Z,15.00
2023-11-01T15:59:50.896Z,15.00
2023-11-01T16:02:18.328Z,14.90
2023-11-01T16:04:45.969Z,14.80
2023-11-01T16:07:13.147Z,14.80
2023-11-01T16:09:42.366Z,14.80
2023-11-01T16:12:09.948Z,14.70
2023-11-01T16:14:37.271Z,14.70
2023-11-01T16:17:07.866Z,14.60
2023-11-01T16:19:34.985Z,14.50
2023-11-01T16:22:03.682Z,14.50
2023-11-01T16:24:31.426Z,14.40
2023-11-01T16:26:59.528Z,14.40
2023-11-01T16:29:28.654Z,14.30
2023-11-01T16:31:56.450Z,14.20
2023-11-01T16:34:24.006Z,14.20
2023-11-01T16:36:51.966Z,14.10
2023-11-01T16:39:19.613Z,14.10
2023-11-01T16:41:47.875Z,14.00
2023-11-01T16:44:15.319Z,13.90
2023-11-01T16:46:42.768Z,13.90
2023-11-01T16:49:12.390Z,13.80
2023-11-01T16:51:41.184Z,13.80
2023-11-01T16:54:11.920Z,13.70
2023-11-01T16:56:40.078Z,13.70
2023-11-01T16:59:07.329Z,13.60
2023-11-01T17:01:35.595Z,13.60
2023-11-01T17:04:03.270Z,13.60
2023-11-01T17:06:31.001Z,13.50
2023-11-01T17:08:58.636Z,13.50
2023-11-01T17:11:27.337Z,13.40
2023-11-01T17:13:57.637Z,13.40
2023-11-01T17:16:25.871Z,13.40
2023-11-01T17:18:54.443Z,13.40
2023-11-01T17:21:22.336Z,13.40
2023-11-01T17:23:51.062Z,13.30
2023-11-01T17:26:29.949Z,13.30
2023-11-01T17:29:00.359Z,13.30
2023-11-01T17:31:46.728Z,13.20
2023-11-01T17:34:28.402Z,13.20
2023-11-01T17:37:05.570Z,13.10
2023-11-01T17:39:40.362Z,13.10
2023-11-01T17:42:12.630Z,13.00
2023-11-01T17:44:42.045Z,13.00
2023-11-01T17:47:19.986Z,12.90
2023-11-01T17:49:47.104Z,12.90
2023-11-01T17:52:19.324Z,12.90
2023-11-01T17:54:47.103Z,12.80
2023-11-01T17:57:16.345Z,12.80
2023-11-01T17:59:43.632Z,12.80
2023-11-01T18:02:55.045Z,12.80
2023-11-01T18:05:36.653Z,12.80
2023-11-01T18:08:17.527Z,12.80
2023-11-01T18:10:53.984Z,12.80
2023-11-01T18:13:29.827Z,12.80
2023-11-01T18:16:02.245Z,12.80
2023-11-01T18:18:38.447Z,12.70
2023-11-01T18:21:21.760Z,12.70
2023-11-01T18:23:59.677Z,12.70
2023-11-01T18:26:29.737Z,12.70
2023-11-01T18:29:12.385Z,12.60
2023-11-01T18:31:46.540Z,12.60
2023-11-01T18:34:16.885Z,12.60
2023-11-01T18:36:47.123Z,12.50
2023-11-01T18:39:17.832Z,12.50
2023-11-01T18:41:45.362Z,12.50
2023-11-01T18:44:36.410Z,12.50
2023-11-01T18:47:07.236Z,12.50
2023-11-01T18:50:05.846Z,12.40
2023-11-01T18:52:33.150Z,12.40
2023-11-01T18:55:00.746Z,12.40
2023-11-01T18:57:36.745Z,12.30
2023-11-01T19:00:10.973Z,12.30
2023-11-01T19:02:38.553Z,12.30
2023-11-01T19:05:10.948Z,12.20
2023-11-01T19:07:41.303Z,12.20
2023-11-01T19:10:22.075Z,12.20
2023-11-01T19:12:52.324Z,12.20
2023-11-01T19:15:40.278Z,12.20
2023-11-01T19:18:19.285Z,12.20
2023-11-01T19:20:47.329Z,12.10
2023-11-01T19:23:15.080Z,12.10
2023-11-01T19:25:42.524Z,12.10
2023-11-01T19:28:09.728Z,12.00
2023-11-01T19:30:37.920Z,12.00
2023-11-01T19:33:06.164Z,12.00
2023-11-01T19:35:35.321Z,12.00
2023-11-01T19:38:04.490Z,12.00
2023-11-01T19:40:31.976Z,12.00
2023-11-01T19:42:59.692Z,12.00
2023-11-01T19:45:26.945Z,12.00
2023-11-01T19:47:54.439Z,12.00
2023-11-01T19:50:25.308Z,12.00
2023-11-01T19:52:54.101Z,11.90
2023-11-01T19:55:21.548Z,11.90
2023-11-01T19:57:49.044Z,11.90
2023-11-01T20:00:17.366Z,11.90
2023-11-01T20:02:45.312Z,11.90
2023-11-01T20:05:12.924Z,11.90
2023-11-01T20:07:40.500Z,11.90
2023-11-01T20:10:12.577Z,11.90
2023-11-01T20:12:40.745Z,11.90
2023-11-01T20:15:20.239Z,11.90
2023-11-01T20:17:48.804Z,11.90
2023-11-01T20:20:16.325Z,11.90
2023-11-01T20:22:43.949Z,11.90
2023-11-01T20:25:13.600Z,11.90
2023-11-01T20:27:42.701Z,11.90
2023-11-01T20:30:10.365Z,11.90
2023-11-01T20:32:38.044Z,11.90
2023-11-01T20:35:05.538Z,11.90
2023-11-01T20:37:32.664Z,11.90
2023-11-01T20:40:00.453Z,11.90
2023-11-01T20:42:27.726Z,11.90
2023-11-01T20:44:55.025Z,11.90
2023-11-01T20:47:22.149Z,11.90
2023-11-01T20:49:49.704Z,11.90
2023-11-01T20:52:17.711Z,11.90
2023-11-01T20:54:55.261Z,11.90
2023-11-01T20:57:25.490Z,11.90
2023-11-01T20:59:52.770Z,11.90
2023-11-01T21:02:19.987Z,11.90
2023-11-01T21:04:47.311Z,11.80
2023-11-01T21:07:14.794Z,11.80
2023-11-01T21:09:42.683Z,11.80
2023-11-01T21:12:10.358Z,11.80
2023-11-01T21:14:40.851Z,11.80
2023-11-01T21:17:08.309Z,11.70
2023-11-01T21:19:35.805Z,11.70
2023-11-01T21:22:03.415Z,11.70
2023-11-01T21:24:31.172Z,11.70
2023-11-01T21:27:00.017Z,11.60
2023-11-01T21:29:27.440Z,11.60
2023-11-01T21:31:54.848Z,11.60
2023-11-01T21:34:22.208Z,11.60
2023-11-01T21:36:50.635Z,11.50
2023-11-01T21:39:19.585Z,11.60
2023-11-01T21:41:47.643Z,11.50
2023-11-01T21:44:31.228Z,11.50
2023-11-01T21:47:00.366Z,11.50
2023-11-01T21:49:35.030Z,11.50
2023-11-01T21:52:22.046Z,11.50
2023-11-01T21:54:51.342Z,11.50
2023-11-01T21:57:28.182Z,11.50
2023-11-01T22:00:10.013Z,11.50
2023-11-01T22:02:49.596Z,11.60
2023-11-01T22:05:19.119Z,11.60
2023-11-01T22:07:47.581Z,11.50
2023-11-01T22:10:16.962Z,11.50
2023-11-01T22:12:47.143Z,11.50
2023-11-01T22:15:24.402Z,11.50
2023-11-01T22:17:52.065Z,11.50
2023-11-01T22:20:24.249Z,11.50
2023-11-01T22:22:55.701Z,11.50
2023-11-01T22:25:35.084Z,11.40
2023-11-01T22:28:08.641Z,11.40
2023-11-01T22:30:37.404Z,11.40
2023-11-01T22:33:09.417Z,11.30
2023-11-01T22:35:43.721Z,11.30
2023-11-01T22:38:14.886Z,11.30
2023-11-01T22:40:45.766Z,11.30
2023-11-01T22:43:15.601Z,11.30
2023-11-01T22:45:43.840Z,11.20
2023-11-01T22:48:12.776Z,11.20
2023-11-01T22:50:40.677Z,11.10
2023-11-01T22:53:07.762Z,11.10
2023-11-01T22:55:41.263Z,11.00
2023-11-01T22:58:11.527Z,11.00
2023-11-01T23:00:39.055Z,10.90
2023-11-01T23:03:06.708Z,10.90
2023-11-01T23:05:35.892Z,10.80
2023-11-01T23:08:03.818Z,10.80
2023-11-01T23:10:34.249Z,10.70
2023-11-01T23:13:02.023Z,10.70
2023-11-01T23:15:29.750Z,10.70
2023-11-01T23:17:58.135Z,10.70
2023-11-01T23:20:25.776Z,10.70
2023-11-01T23:22:54.198Z,10.60
2023-11-01T23:25:32.243Z,10.60
2023-11-01T23:28:04.909Z,10.60
2023-11-01T23:30:40.847Z,10.50
2023-11-01T23:33:08.647Z,10.50
2023-11-01T23:35:45.728Z,10.50
2023-11-01T23:38:14.323Z,10.50
2023-11-01T23:40:45.493Z,10.40
2023-11-01T23:43:14.350Z,10.40
2023-11-01T23:45:41.664Z,10.40
2023-11-01T23:48:09.887Z,10.40
2023-11-01T23:50:40.562Z,10.40
2023-11-01T23:53:09.744Z,10.40
2023-11-01T23:55:41.699Z,10.30
2023-11-01T23:58:09.283Z,10.40
